sensor_id;sensor_type;location;lat;lon;timestamp;P1;durP1;ratioP1;P2;durP2;ratioP2
21804;SDS011;11064;47.102;15.452;2023-07-09T05:03:29;8.93;;;6.97;;
21804;SDS011;11064;47.102;15.452;2023-07-09T05:05:55;8.27;;;6.35;;
21804;SDS011;11064;47.102;15.452;2023-07-09T05:08:21;11.10;;;6.70;;
21804;SDS011;11064;47.102;15.452;2023-07-09T05:10:49;7.28;;;6.43;;
21804;SDS011;11064;47.102;15.452;2023-07-09T05:13:17;7.97;;;6.35;;
21804;SDS011;11064;47.102;15.452;2023-07-09T05:15:44;10.82;;;6.70;;
21804;SDS011;11064;47.102;15.452;2023-07-09T05:18:12;8.63;;;6.38;;
21804;SDS011;11064;47.102;15.452;2023-07-09T05:20:40;9.25;;;6.88;;
21804;SDS011;11064;47.102;15.452;2023-07-09T05:23:08;9.98;;;6.53;;
21804;SDS011;11064;47.102;15.452;2023-07-09T05:25:35;8.95;;;6.60;;
21804;SDS011;11064;47.102;15.452;2023-07-09T05:28:02;10.05;;;6.93;;
21804;SDS011;11064;47.102;15.452;2023-07-09T05:30:29;7.53;;;6.60;;
21804;SDS011;11064;47.102;15.452;2023-07-09T05:32:54;10.45;;;7.35;;
21804;SDS011;11064;47.102;15.452;2023-07-09T05:35:26;7.72;;;6.85;;
21804;SDS011;11064;47.102;15.452;2023-07-09T05:37:53;9.95;;;6.50;;
21804;SDS011;11064;47.102;15.452;2023-07-09T05:40:20;9.23;;;6.47;;
21804;SDS011;11064;47.102;15.452;2023-07-09T05:42:47;8.70;;;6.63;;
21804;SDS011;11064;47.102;15.452;2023-07-09T05:45:13;6.60;;;5.93;;
21804;SDS011;11064;47.102;15.452;2023-07-09T05:47:40;10.50;;;6.38;;
21804;SDS011;11064;47.102;15.452;2023-07-09T05:50:06;8.57;;;6.03;;
21804;SDS011;11064;47.102;15.452;2023-07-09T05:52:32;9.95;;;6.55;;
21804;SDS011;11064;47.102;15.452;2023-07-09T05:54:58;7.82;;;6.35;;
21804;SDS011;11064;47.102;15.452;2023-07-09T05:57:27;9.60;;;5.85;;
21804;SDS011;11064;47.102;15.452;2023-07-09T05:59:53;8.55;;;6.03;;
21804;SDS011;11064;47.102;15.452;2023-07-09T06:02:19;6.97;;;6.18;;
21804;SDS011;11064;47.102;15.452;2023-07-09T06:04:46;7.50;;;6.70;;
21804;SDS011;11064;47.102;15.452;2023-07-09T06:07:16;7.90;;;6.70;;
21804;SDS011;11064;47.102;15.452;2023-07-09T06:09:45;8.25;;;6.70;;
21804;SDS011;11064;47.102;15.452;2023-07-09T06:12:11;8.48;;;6.40;;
21804;SDS011;11064;47.102;15.452;2023-07-09T06:14:37;9.27;;;6.80;;
21804;SDS011;11064;47.102;15.452;2023-07-09T06:17:03;10.77;;;6.72;;
21804;SDS011;11064;47.102;15.452;2023-07-09T06:19:29;8.48;;;6.85;;
21804;SDS011;11064;47.102;15.452;2023-07-09T06:21:55;8.32;;;6.38;;
21804;SDS011;11064;47.102;15.452;2023-07-09T06:24:21;11.50;;;7.22;;
21804;SDS011;11064;47.102;15.452;2023-07-09T06:26:47;8.98;;;7.07;;
21804;SDS011;11064;47.102;15.452;2023-07-09T06:29:13;12.30;;;7.18;;
21804;SDS011;11064;47.102;15.452;2023-07-09T06:31:39;8.48;;;6.30;;
21804;SDS011;11064;47.102;15.452;2023-07-09T06:34:07;8.73;;;6.93;;
21804;SDS011;11064;47.102;15.452;2023-07-09T06:36:34;8.10;;;6.63;;
21804;SDS011;11064;47.102;15.452;2023-07-09T06:39:01;10.13;;;7.35;;
21804;SDS011;11064;47.102;15.452;2023-07-09T06:41:27;10.95;;;7.55;;
21804;SDS011;11064;47.102;15.452;2023-07-09T06:43:54;8.40;;;6.97;;
21804;SDS011;11064;47.102;15.452;2023-07-09T06:46:20;10.02;;;7.30;;
21804;SDS011;11064;47.102;15.452;2023-07-09T06:48:46;10.73;;;7.38;;
21804;SDS011;11064;47.102;15.452;2023-07-09T06:51:12;10.15;;;6.90;;
21804;SDS011;11064;47.102;15.452;2023-07-09T06:53:38;8.32;;;6.97;;
21804;SDS011;11064;47.102;15.452;2023-07-09T06:56:09;8.60;;;6.65;;
21804;SDS011;11064;47.102;15.452;2023-07-09T06:58:36;7.82;;;7.03;;
21804;SDS011;11064;47.102;15.452;2023-07-09T07:01:02;9.63;;;7.00;;
21804;SDS011;11064;47.102;15.452;2023-07-09T07:03:30;17.13;;;7.05;;
21804;SDS011;11064;47.102;15.452;2023-07-09T07:05:57;10.05;;;7.30;;
21804;SDS011;11064;47.102;15.452;2023-07-09T07:08:24;11.27;;;7.20;;
21804;SDS011;11064;47.102;15.452;2023-07-09T07:10:58;8.15;;;6.55;;
21804;SDS011;11064;47.102;15.452;2023-07-09T07:13:34;9.65;;;7.50;;
21804;SDS011;11064;47.102;15.452;2023-07-09T07:16:02;11.07;;;7.15;;
21804;SDS011;11064;47.102;15.452;2023-07-09T07:18:30;11.65;;;7.32;;
21804;SDS011;11064;47.102;15.452;2023-07-09T07:20:56;9.02;;;6.97;;
21804;SDS011;11064;47.102;15.452;2023-07-09T07:23:22;10.18;;;7.50;;
21804;SDS011;11064;47.102;15.452;2023-07-09T07:25:49;10.45;;;7.03;;
21804;SDS011;11064;47.102;15.452;2023-07-09T07:28:15;9.85;;;7.18;;
21804;SDS011;11064;47.102;15.452;2023-07-09T07:30:41;9.30;;;6.80;;
21804;SDS011;11064;47.102;15.452;2023-07-09T07:33:08;8.80;;;7.00;;
21804;SDS011;11064;47.102;15.452;2023-07-09T07:35:34;7.10;;;6.40;;
21804;SDS011;11064;47.102;15.452;2023-07-09T07:38:00;9.23;;;6.95;;
21804;SDS011;11064;47.102;15.452;2023-07-09T07:40:25;9.88;;;6.72;;
21804;SDS011;11064;47.102;15.452;2023-07-09T07:42:51;9.40;;;6.82;;
21804;SDS011;11064;47.102;15.452;2023-07-09T07:45:17;8.55;;;6.22;;
21804;SDS011;11064;47.102;15.452;2023-07-09T07:47:44;9.05;;;6.60;;
21804;SDS011;11064;47.102;15.452;2023-07-09T07:50:10;8.05;;;6.63;;
21804;SDS011;11064;47.102;15.452;2023-07-09T07:52:36;8.77;;;6.60;;
21804;SDS011;11064;47.102;15.452;2023-07-09T07:55:04;11.27;;;6.78;;
21804;SDS011;11064;47.102;15.452;2023-07-09T07:57:30;10.95;;;6.80;;
21804;SDS011;11064;47.102;15.452;2023-07-09T07:59:56;8.68;;;6.78;;
21804;SDS011;11064;47.102;15.452;2023-07-09T08:02:23;13.70;;;7.10;;
21804;SDS011;11064;47.102;15.452;2023-07-09T08:04:50;8.32;;;6.55;;
21804;SDS011;11064;47.102;15.452;2023-07-09T08:07:16;8.27;;;6.55;;
21804;SDS011;11064;47.102;15.452;2023-07-09T08:09:44;8.15;;;6.85;;
21804;SDS011;11064;47.102;15.452;2023-07-09T08:12:11;10.40;;;6.65;;
21804;SDS011;11064;47.102;15.452;2023-07-09T08:14:38;9.45;;;6.53;;
21804;SDS011;11064;47.102;15.452;2023-07-09T08:17:05;8.82;;;6.68;;
21804;SDS011;11064;47.102;15.452;2023-07-09T08:19:43;10.88;;;6.72;;
21804;SDS011;11064;47.102;15.452;2023-07-09T08:22:14;9.27;;;6.57;;
21804;SDS011;11064;47.102;15.452;2023-07-09T08:24:40;9.85;;;7.10;;
21804;SDS011;11064;47.102;15.452;2023-07-09T08:27:07;9.68;;;6.78;;
21804;SDS011;11064;47.102;15.452;2023-07-09T08:29:34;8.18;;;6.90;;
21804;SDS011;11064;47.102;15.452;2023-07-09T08:32:01;7.85;;;6.40;;
21804;SDS011;11064;47.102;15.452;2023-07-09T08:34:27;9.00;;;6.25;;
21804;SDS011;11064;47.102;15.452;2023-07-09T08:36:53;9.63;;;6.90;;
21804;SDS011;11064;47.102;15.452;2023-07-09T08:39:19;10.43;;;6.47;;
21804;SDS011;11064;47.102;15.452;2023-07-09T08:41:48;7.13;;;6.10;;
21804;SDS011;11064;47.102;15.452;2023-07-09T08:52:24;8.18;;;6.00;;
21804;SDS011;11064;47.102;15.452;2023-07-09T08:55:05;8.52;;;5.93;;
21804;SDS011;11064;47.102;15.452;2023-07-09T08:57:34;7.35;;;6.00;;
21804;SDS011;11064;47.102;15.452;2023-07-09T09:00:15;8.30;;;6.00;;
21804;SDS011;11064;47.102;15.452;2023-07-09T09:05:21;6.70;;;5.50;;
21804;SDS011;11064;47.102;15.452;2023-07-09T09:07:50;11.43;;;5.68;;
21804;SDS011;11064;47.102;15.452;2023-07-09T09:10:33;12.07;;;5.80;;
21804;SDS011;11064;47.102;15.452;2023-07-09T09:13:13;7.10;;;5.40;;
21804;SDS011;11064;47.102;15.452;2023-07-09T09:15:45;7.43;;;5.55;;
21804;SDS011;11064;47.102;15.452;2023-07-09T09:18:21;7.65;;;5.82;;
21804;SDS011;11064;47.102;15.452;2023-07-09T09:23:29;7.20;;;5.20;;
21804;SDS011;11064;47.102;15.452;2023-07-09T09:26:03;9.45;;;6.07;;
21804;SDS011;11064;47.102;15.452;2023-07-09T09:28:37;6.45;;;5.70;;
21804;SDS011;11064;47.102;15.452;2023-07-09T09:31:04;8.75;;;6.25;;
21804;SDS011;11064;47.102;15.452;2023-07-09T09:33:36;7.82;;;6.10;;
21804;SDS011;11064;47.102;15.452;2023-07-09T09:36:11;8.43;;;5.93;;
21804;SDS011;11064;47.102;15.452;2023-07-09T09:38:44;9.27;;;5.65;;
21804;SDS011;11064;47.102;15.452;2023-07-09T09:41:14;8.15;;;5.90;;
21804;SDS011;11064;47.102;15.452;2023-07-09T09:43:46;6.72;;;5.70;;
21804;SDS011;11064;47.102;15.452;2023-07-09T09:46:16;7.57;;;6.22;;
21804;SDS011;11064;47.102;15.452;2023-07-09T09:48:44;7.80;;;5.80;;
21804;SDS011;11064;47.102;15.452;2023-07-09T09:51:12;8.63;;;6.07;;
21804;SDS011;11064;47.102;15.452;2023-07-09T09:53:41;6.95;;;5.45;;
21804;SDS011;11064;47.102;15.452;2023-07-09T09:56:14;11.25;;;6.10;;
21804;SDS011;11064;47.102;15.452;2023-07-09T09:58:43;8.35;;;5.95;;
21804;SDS011;11064;47.102;15.452;2023-07-09T10:01:16;7.25;;;5.63;;
21804;SDS011;11064;47.102;15.452;2023-07-09T10:03:43;8.20;;;5.85;;
21804;SDS011;11064;47.102;15.452;2023-07-09T10:12:03;9.75;;;7.03;;
21804;SDS011;11064;47.102;15.452;2023-07-09T10:20:07;7.20;;;5.82;;
21804;SDS011;11064;47.102;15.452;2023-07-09T10:22:51;6.93;;;6.05;;
21804;SDS011;11064;47.102;15.452;2023-07-09T10:25:39;9.52;;;6.13;;
21804;SDS011;11064;47.102;15.452;2023-07-09T10:31:33;8.55;;;5.60;;
21804;SDS011;11064;47.102;15.452;2023-07-09T10:36:51;7.43;;;5.45;;
21804;SDS011;11064;47.102;15.452;2023-07-09T10:39:50;8.05;;;5.80;;
21804;SDS011;11064;47.102;15.452;2023-07-09T10:44:59;8.02;;;5.45;;
21804;SDS011;11064;47.102;15.452;2023-07-09T10:47:30;6.60;;;4.85;;
21804;SDS011;11064;47.102;15.452;2023-07-09T10:50:00;8.70;;;5.20;;
21804;SDS011;11064;47.102;15.452;2023-07-09T10:52:39;6.70;;;5.53;;
21804;SDS011;11064;47.102;15.452;2023-07-09T11:00:15;7.50;;;5.43;;
21804;SDS011;11064;47.102;15.452;2023-07-09T11:02:43;7.60;;;5.85;;
21804;SDS011;11064;47.102;15.452;2023-07-09T11:05:11;6.82;;;5.72;;
21804;SDS011;11064;47.102;15.452;2023-07-09T11:10:29;6.63;;;5.53;;
21804;SDS011;11064;47.102;15.452;2023-07-09T11:15:37;6.50;;;5.30;;
21804;SDS011;11064;47.102;15.452;2023-07-09T11:18:07;7.22;;;5.32;;
21804;SDS011;11064;47.102;15.452;2023-07-09T11:20:43;7.15;;;5.47;;
21804;SDS011;11064;47.102;15.452;2023-07-09T11:23:17;6.30;;;5.57;;
21804;SDS011;11064;47.102;15.452;2023-07-09T11:28:50;5.78;;;4.88;;
21804;SDS011;11064;47.102;15.452;2023-07-09T11:31:31;6.80;;;5.57;;
21804;SDS011;11064;47.102;15.452;2023-07-09T11:34:02;6.38;;;5.53;;
21804;SDS011;11064;47.102;15.452;2023-07-09T11:36:33;6.60;;;5.07;;
21804;SDS011;11064;47.102;15.452;2023-07-09T11:39:00;6.90;;;4.80;;
21804;SDS011;11064;47.102;15.452;2023-07-09T11:41:33;7.07;;;5.00;;
21804;SDS011;11064;47.102;15.452;2023-07-09T11:44:10;8.43;;;4.97;;
21804;SDS011;11064;47.102;15.452;2023-07-09T11:46:55;7.10;;;5.00;;
21804;SDS011;11064;47.102;15.452;2023-07-09T11:50:31;8.65;;;4.90;;
21804;SDS011;11064;47.102;15.452;2023-07-09T11:52:58;6.15;;;5.03;;
21804;SDS011;11064;47.102;15.452;2023-07-09T11:55:33;9.57;;;5.28;;
21804;SDS011;11064;47.102;15.452;2023-07-09T11:58:09;7.20;;;4.82;;
21804;SDS011;11064;47.102;15.452;2023-07-09T12:00:38;11.90;;;4.90;;
21804;SDS011;11064;47.102;15.452;2023-07-09T12:03:27;7.57;;;5.13;;
21804;SDS011;11064;47.102;15.452;2023-07-09T12:08:34;6.22;;;4.47;;
21804;SDS011;11064;47.102;15.452;2023-07-09T12:11:05;8.23;;;5.22;;
21804;SDS011;11064;47.102;15.452;2023-07-09T12:13:39;8.13;;;5.10;;
21804;SDS011;11064;47.102;15.452;2023-07-09T12:16:27;7.38;;;5.40;;
21804;SDS011;11064;47.102;15.452;2023-07-09T12:18:54;6.35;;;5.40;;
21804;SDS011;11064;47.102;15.452;2023-07-09T12:21:22;6.53;;;4.88;;
21804;SDS011;11064;47.102;15.452;2023-07-09T12:23:49;6.05;;;5.30;;
21804;SDS011;11064;47.102;15.452;2023-07-09T12:26:17;8.68;;;5.03;;
21804;SDS011;11064;47.102;15.452;2023-07-09T12:28:51;6.10;;;4.85;;
21804;SDS011;11064;47.102;15.452;2023-07-09T12:31:20;6.25;;;5.15;;
21804;SDS011;11064;47.102;15.452;2023-07-09T12:33:52;7.78;;;4.60;;
21804;SDS011;11064;47.102;15.452;2023-07-09T12:36:19;6.22;;;4.75;;
21804;SDS011;11064;47.102;15.452;2023-07-09T12:38:45;5.88;;;5.03;;
21804;SDS011;11064;47.102;15.452;2023-07-09T12:41:17;6.03;;;4.67;;
21804;SDS011;11064;47.102;15.452;2023-07-09T12:43:53;6.63;;;5.05;;
21804;SDS011;11064;47.102;15.452;2023-07-09T12:46:21;4.97;;;4.47;;
21804;SDS011;11064;47.102;15.452;2023-07-09T12:48:48;7.05;;;5.18;;
21804;SDS011;11064;47.102;15.452;2023-07-09T12:51:21;5.03;;;4.53;;
21804;SDS011;11064;47.102;15.452;2023-07-09T12:56:55;7.97;;;5.00;;
21804;SDS011;11064;47.102;15.452;2023-07-09T12:59:24;5.30;;;4.80;;
21804;SDS011;11064;47.102;15.452;2023-07-09T13:01:56;6.03;;;5.10;;
21804;SDS011;11064;47.102;15.452;2023-07-09T13:04:30;6.00;;;5.10;;
21804;SDS011;11064;47.102;15.452;2023-07-09T13:06:57;5.60;;;4.63;;
21804;SDS011;11064;47.102;15.452;2023-07-09T13:09:25;5.70;;;4.72;;
21804;SDS011;11064;47.102;15.452;2023-07-09T13:11:52;7.82;;;5.18;;
21804;SDS011;11064;47.102;15.452;2023-07-09T13:14:24;5.03;;;4.38;;
21804;SDS011;11064;47.102;15.452;2023-07-09T13:16:52;7.78;;;4.70;;
21804;SDS011;11064;47.102;15.452;2023-07-09T13:19:18;7.63;;;4.95;;
21804;SDS011;11064;47.102;15.452;2023-07-09T13:21:44;7.50;;;4.95;;
21804;SDS011;11064;47.102;15.452;2023-07-09T13:24:19;8.00;;;4.85;;
21804;SDS011;11064;47.102;15.452;2023-07-09T13:26:48;7.15;;;5.60;;
21804;SDS011;11064;47.102;15.452;2023-07-09T13:29:14;6.72;;;5.43;;
21804;SDS011;11064;47.102;15.452;2023-07-09T13:31:43;6.60;;;5.15;;
21804;SDS011;11064;47.102;15.452;2023-07-09T13:34:23;6.53;;;4.85;;
21804;SDS011;11064;47.102;15.452;2023-07-09T13:36:51;7.40;;;4.80;;
21804;SDS011;11064;47.102;15.452;2023-07-09T13:39:19;5.65;;;4.70;;
21804;SDS011;11064;47.102;15.452;2023-07-09T13:41:46;7.95;;;4.97;;
21804;SDS011;11064;47.102;15.452;2023-07-09T13:44:16;5.53;;;4.90;;
21804;SDS011;11064;47.102;15.452;2023-07-09T13:46:44;6.30;;;4.90;;
21804;SDS011;11064;47.102;15.452;2023-07-09T13:49:11;7.97;;;4.90;;
21804;SDS011;11064;47.102;15.452;2023-07-09T13:51:39;5.03;;;4.53;;
21804;SDS011;11064;47.102;15.452;2023-07-09T13:54:14;5.85;;;4.78;;
21804;SDS011;11064;47.102;15.452;2023-07-09T13:56:46;6.10;;;4.97;;
21804;SDS011;11064;47.102;15.452;2023-07-09T13:59:15;6.45;;;5.10;;
21804;SDS011;11064;47.102;15.452;2023-07-09T14:01:46;5.93;;;5.00;;
21804;SDS011;11064;47.102;15.452;2023-07-09T14:04:14;5.90;;;4.95;;
21804;SDS011;11064;47.102;15.452;2023-07-09T14:06:42;6.47;;;4.82;;
21804;SDS011;11064;47.102;15.452;2023-07-09T14:09:09;6.35;;;4.80;;
21804;SDS011;11064;47.102;15.452;2023-07-09T14:11:37;8.00;;;4.80;;
21804;SDS011;11064;47.102;15.452;2023-07-09T14:14:19;6.90;;;4.47;;
21804;SDS011;11064;47.102;15.452;2023-07-09T14:16:48;7.45;;;4.75;;
21804;SDS011;11064;47.102;15.452;2023-07-09T14:19:15;9.88;;;4.80;;
21804;SDS011;11064;47.102;15.452;2023-07-09T14:21:43;7.78;;;5.10;;
21804;SDS011;11064;47.102;15.452;2023-07-09T14:24:28;7.45;;;5.07;;
21804;SDS011;11064;47.102;15.452;2023-07-09T14:26:55;5.35;;;4.78;;
21804;SDS011;11064;47.102;15.452;2023-07-09T14:29:23;7.30;;;5.15;;
21804;SDS011;11064;47.102;15.452;2023-07-09T14:31:49;5.70;;;4.97;;
21804;SDS011;11064;47.102;15.452;2023-07-09T14:34:28;6.32;;;5.07;;
21804;SDS011;11064;47.102;15.452;2023-07-09T14:36:58;6.05;;;4.70;;
21804;SDS011;11064;47.102;15.452;2023-07-09T14:39:26;5.82;;;5.03;;
21804;SDS011;11064;47.102;15.452;2023-07-09T14:41:53;7.00;;;5.03;;
21804;SDS011;11064;47.102;15.452;2023-07-09T14:44:24;7.75;;;5.10;;
21804;SDS011;11064;47.102;15.452;2023-07-09T14:46:55;6.47;;;5.53;;
21804;SDS011;11064;47.102;15.452;2023-07-09T14:49:22;7.05;;;4.95;;
21804;SDS011;11064;47.102;15.452;2023-07-09T14:51:49;8.82;;;5.10;;
21804;SDS011;11064;47.102;15.452;2023-07-09T14:54:20;5.60;;;5.00;;
21804;SDS011;11064;47.102;15.452;2023-07-09T14:56:47;7.97;;;4.88;;
21804;SDS011;11064;47.102;15.452;2023-07-09T14:59:14;6.38;;;5.20;;
21804;SDS011;11064;47.102;15.452;2023-07-09T15:01:40;5.55;;;4.95;;
21804;SDS011;11064;47.102;15.452;2023-07-09T15:06:50;6.45;;;5.22;;
21804;SDS011;11064;47.102;15.452;2023-07-09T15:09:18;6.53;;;5.18;;
21804;SDS011;11064;47.102;15.452;2023-07-09T15:11:46;7.72;;;5.30;;
21804;SDS011;11064;47.102;15.452;2023-07-09T15:14:15;8.07;;;5.20;;
21804;SDS011;11064;47.102;15.452;2023-07-09T15:16:41;6.20;;;5.18;;
21804;SDS011;11064;47.102;15.452;2023-07-09T15:19:11;6.43;;;5.10;;
21804;SDS011;11064;47.102;15.452;2023-07-09T15:21:46;6.38;;;4.82;;
21804;SDS011;11064;47.102;15.452;2023-07-09T15:24:25;7.82;;;4.70;;
21804;SDS011;11064;47.102;15.452;2023-07-09T15:26:55;5.78;;;5.10;;
21804;SDS011;11064;47.102;15.452;2023-07-09T15:29:22;5.60;;;5.00;;
21804;SDS011;11064;47.102;15.452;2023-07-09T15:31:48;6.47;;;5.00;;
21804;SDS011;11064;47.102;15.452;2023-07-09T15:34:14;5.22;;;4.55;;
21804;SDS011;11064;47.102;15.452;2023-07-09T15:36:48;6.20;;;4.70;;
21804;SDS011;11064;47.102;15.452;2023-07-09T15:39:16;6.78;;;4.90;;
21804;SDS011;11064;47.102;15.452;2023-07-09T15:41:43;6.13;;;4.75;;
21804;SDS011;11064;47.102;15.452;2023-07-09T15:44:12;6.85;;;4.60;;
21804;SDS011;11064;47.102;15.452;2023-07-09T15:46:50;5.90;;;4.80;;
21804;SDS011;11064;47.102;15.452;2023-07-09T15:49:20;7.35;;;5.10;;
21804;SDS011;11064;47.102;15.452;2023-07-09T15:51:46;5.50;;;4.65;;
21804;SDS011;11064;47.102;15.452;2023-07-09T15:54:14;8.82;;;5.18;;
21804;SDS011;11064;47.102;15.452;2023-07-09T15:56:43;5.57;;;4.75;;
21804;SDS011;11064;47.102;15.452;2023-07-09T15:59:28;7.53;;;4.90;;
21804;SDS011;11064;47.102;15.452;2023-07-09T16:01:57;6.88;;;4.63;;
21804;SDS011;11064;47.102;15.452;2023-07-09T16:04:24;5.63;;;4.75;;
21804;SDS011;11064;47.102;15.452;2023-07-09T16:06:50;6.35;;;4.85;;
21804;SDS011;11064;47.102;15.452;2023-07-09T16:09:17;5.90;;;4.57;;
21804;SDS011;11064;47.102;15.452;2023-07-09T16:11:43;7.60;;;4.95;;
21804;SDS011;11064;47.102;15.452;2023-07-09T16:14:24;6.25;;;4.80;;
21804;SDS011;11064;47.102;15.452;2023-07-09T16:16:53;6.82;;;4.90;;
21804;SDS011;11064;47.102;15.452;2023-07-09T16:19:21;7.60;;;5.28;;
21804;SDS011;11064;47.102;15.452;2023-07-09T16:21:53;5.72;;;4.90;;
21804;SDS011;11064;47.102;15.452;2023-07-09T16:24:27;6.55;;;4.70;;
21804;SDS011;11064;47.102;15.452;2023-07-09T16:26:55;5.50;;;4.70;;
21804;SDS011;11064;47.102;15.452;2023-07-09T16:29:25;6.13;;;5.18;;
21804;SDS011;11064;47.102;15.452;2023-07-09T16:31:53;5.47;;;4.88;;
21804;SDS011;11064;47.102;15.452;2023-07-09T16:34:23;8.38;;;4.80;;
21804;SDS011;11064;47.102;15.452;2023-07-09T16:36:50;9.48;;;5.15;;
21804;SDS011;11064;47.102;15.452;2023-07-09T16:41:52;6.78;;;5.07;;
21804;SDS011;11064;47.102;15.452;2023-07-09T16:44:19;6.20;;;5.35;;
21804;SDS011;11064;47.102;15.452;2023-07-09T16:46:47;5.57;;;4.93;;
21804;SDS011;11064;47.102;15.452;2023-07-09T16:49:33;6.25;;;4.75;;
21804;SDS011;11064;47.102;15.452;2023-07-09T16:52:16;7.25;;;5.00;;
21804;SDS011;11064;47.102;15.452;2023-07-09T16:54:45;7.25;;;5.22;;
21804;SDS011;11064;47.102;15.452;2023-07-09T16:57:12;5.85;;;4.90;;
21804;SDS011;11064;47.102;15.452;2023-07-09T16:59:44;6.22;;;5.00;;
21804;SDS011;11064;47.102;15.452;2023-07-09T17:02:27;6.88;;;5.00;;
21804;SDS011;11064;47.102;15.452;2023-07-09T17:04:56;5.85;;;5.00;;
21804;SDS011;11064;47.102;15.452;2023-07-09T17:07:23;6.00;;;5.18;;
21804;SDS011;11064;47.102;15.452;2023-07-09T17:09:51;6.65;;;5.07;;
21804;SDS011;11064;47.102;15.452;2023-07-09T17:12:18;6.63;;;5.28;;
21804;SDS011;11064;47.102;15.452;2023-07-09T17:14:44;5.40;;;4.68;;
21804;SDS011;11064;47.102;15.452;2023-07-09T17:17:12;5.70;;;5.07;;
21804;SDS011;11064;47.102;15.452;2023-07-09T17:19:39;6.60;;;5.05;;
21804;SDS011;11064;47.102;15.452;2023-07-09T17:22:48;6.82;;;5.20;;
21804;SDS011;11064;47.102;15.452;2023-07-09T17:25:03;6.53;;;5.40;;
21804;SDS011;11064;47.102;15.452;2023-07-09T17:27:44;5.55;;;4.80;;
21804;SDS011;11064;47.102;15.452;2023-07-09T17:30:12;9.77;;;5.85;;
21804;SDS011;11064;47.102;15.452;2023-07-09T17:32:39;8.73;;;5.80;;
21804;SDS011;11064;47.102;15.452;2023-07-09T17:35:08;7.30;;;6.20;;
21804;SDS011;11064;47.102;15.452;2023-07-09T17:37:34;7.38;;;6.03;;
21804;SDS011;11064;47.102;15.452;2023-07-09T17:40:01;8.45;;;6.38;;
21804;SDS011;11064;47.102;15.452;2023-07-09T17:42:27;8.93;;;5.90;;
21804;SDS011;11064;47.102;15.452;2023-07-09T17:44:53;7.55;;;5.93;;
21804;SDS011;11064;47.102;15.452;2023-07-09T17:47:19;8.15;;;5.70;;
21804;SDS011;11064;47.102;15.452;2023-07-09T17:49:45;6.82;;;5.82;;
21804;SDS011;11064;47.102;15.452;2023-07-09T17:52:16;9.15;;;5.63;;
21804;SDS011;11064;47.102;15.452;2023-07-09T17:54:43;7.82;;;5.70;;
21804;SDS011;11064;47.102;15.452;2023-07-09T17:57:13;8.65;;;5.70;;
21804;SDS011;11064;47.102;15.452;2023-07-09T17:59:45;6.10;;;5.50;;
21804;SDS011;11064;47.102;15.452;2023-07-09T18:02:14;9.32;;;5.88;;
21804;SDS011;11064;47.102;15.452;2023-07-09T18:04:47;9.88;;;6.00;;
21804;SDS011;11064;47.102;15.452;2023-07-09T18:07:19;6.88;;;5.47;;
21804;SDS011;11064;47.102;15.452;2023-07-09T18:09:53;6.88;;;5.60;;
21804;SDS011;11064;47.102;15.452;2023-07-09T18:12:20;7.10;;;5.90;;
21804;SDS011;11064;47.102;15.452;2023-07-09T18:14:49;7.93;;;5.90;;
21804;SDS011;11064;47.102;15.452;2023-07-09T18:17:17;6.50;;;5.85;;
21804;SDS011;11064;47.102;15.452;2023-07-09T18:19:48;6.97;;;5.72;;
21804;SDS011;11064;47.102;15.452;2023-07-09T18:22:16;7.20;;;5.80;;
21804;SDS011;11064;47.102;15.452;2023-07-09T18:24:44;7.25;;;5.90;;
21804;SDS011;11064;47.102;15.452;2023-07-09T18:27:21;6.78;;;5.80;;
21804;SDS011;11064;47.102;15.452;2023-07-09T18:29:51;7.18;;;5.75;;
21804;SDS011;11064;47.102;15.452;2023-07-09T18:32:18;8.63;;;5.80;;
21804;SDS011;11064;47.102;15.452;2023-07-09T18:34:48;7.30;;;5.97;;
21804;SDS011;11064;47.102;15.452;2023-07-09T18:37:19;9.73;;;6.55;;
21804;SDS011;11064;47.102;15.452;2023-07-09T18:39:47;7.75;;;5.68;;
21804;SDS011;11064;47.102;15.452;2023-07-09T18:42:14;7.88;;;6.22;;
21804;SDS011;11064;47.102;15.452;2023-07-09T18:44:43;8.80;;;6.30;;
21804;SDS011;11064;47.102;15.452;2023-07-09T18:47:10;9.00;;;6.40;;
21804;SDS011;11064;47.102;15.452;2023-07-09T18:49:38;7.28;;;6.05;;
21804;SDS011;11064;47.102;15.452;2023-07-09T18:52:09;8.38;;;6.57;;
21804;SDS011;11064;47.102;15.452;2023-07-09T18:54:53;7.20;;;6.50;;
21804;SDS011;11064;47.102;15.452;2023-07-09T18:57:19;8.68;;;6.25;;
21804;SDS011;11064;47.102;15.452;2023-07-09T18:59:45;7.45;;;6.53;;
21804;SDS011;11064;47.102;15.452;2023-07-09T19:02:19;7.10;;;6.38;;
21804;SDS011;11064;47.102;15.452;2023-07-09T19:04:49;8.85;;;6.60;;
21804;SDS011;11064;47.102;15.452;2023-07-09T19:07:20;8.38;;;6.30;;
21804;SDS011;11064;47.102;15.452;2023-07-09T19:09:47;9.10;;;6.20;;
21804;SDS011;11064;47.102;15.452;2023-07-09T19:12:16;11.07;;;6.50;;
21804;SDS011;11064;47.102;15.452;2023-07-09T19:14:42;8.55;;;5.88;;
21804;SDS011;11064;47.102;15.452;2023-07-09T19:17:12;7.68;;;6.50;;
21804;SDS011;11064;47.102;15.452;2023-07-09T19:19:40;10.30;;;6.88;;
21804;SDS011;11064;47.102;15.452;2023-07-09T19:22:08;8.30;;;6.30;;
21804;SDS011;11064;47.102;15.452;2023-07-09T19:24:37;9.82;;;6.20;;
21804;SDS011;11064;47.102;15.452;2023-07-09T19:27:03;9.05;;;6.65;;
21804;SDS011;11064;47.102;15.452;2023-07-09T19:29:29;8.85;;;6.50;;
21804;SDS011;11064;47.102;15.452;2023-07-09T19:31:55;8.77;;;6.40;;
21804;SDS011;11064;47.102;15.452;2023-07-09T19:34:31;8.25;;;6.50;;
21804;SDS011;11064;47.102;15.452;2023-07-09T19:37:03;10.75;;;6.85;;
21804;SDS011;11064;47.102;15.452;2023-07-09T19:39:38;9.25;;;6.75;;
21804;SDS011;11064;47.102;15.452;2023-07-09T19:44:38;8.18;;;6.60;;
21804;SDS011;11064;47.102;15.452;2023-07-09T19:47:04;8.68;;;7.00;;
21804;SDS011;11064;47.102;15.452;2023-07-09T19:49:31;8.27;;;6.28;;
21804;SDS011;11064;47.102;15.452;2023-07-09T19:51:57;8.02;;;6.45;;
21804;SDS011;11064;47.102;15.452;2023-07-09T19:54:24;10.18;;;7.15;;
21804;SDS011;11064;47.102;15.452;2023-07-09T19:56:50;8.05;;;6.43;;
21804;SDS011;11064;47.102;15.452;2023-07-09T19:59:18;10.35;;;6.85;;
21804;SDS011;11064;47.102;15.452;2023-07-09T20:01:48;8.25;;;6.68;;
21804;SDS011;11064;47.102;15.452;2023-07-09T20:04:16;8.20;;;6.32;;
21804;SDS011;11064;47.102;15.452;2023-07-09T20:06:42;7.88;;;6.45;;
21804;SDS011;11064;47.102;15.452;2023-07-09T20:09:11;8.23;;;6.80;;
21804;SDS011;11064;47.102;15.452;2023-07-09T20:11:43;7.95;;;7.03;;
21804;SDS011;11064;47.102;15.452;2023-07-09T20:14:19;8.40;;;6.80;;
21804;SDS011;11064;47.102;15.452;2023-07-09T20:16:47;9.27;;;6.60;;
21804;SDS011;11064;47.102;15.452;2023-07-09T20:19:13;9.75;;;6.82;;
21804;SDS011;11064;47.102;15.452;2023-07-09T20:21:41;9.02;;;7.07;;
21804;SDS011;11064;47.102;15.452;2023-07-09T20:24:18;9.48;;;7.10;;
21804;SDS011;11064;47.102;15.452;2023-07-09T20:26:46;8.60;;;6.75;;
21804;SDS011;11064;47.102;15.452;2023-07-09T20:29:16;8.15;;;6.30;;
21804;SDS011;11064;47.102;15.452;2023-07-09T20:31:47;9.20;;;6.95;;
21804;SDS011;11064;47.102;15.452;2023-07-09T20:34:15;7.85;;;6.55;;
21804;SDS011;11064;47.102;15.452;2023-07-09T20:36:50;9.32;;;6.97;;
21804;SDS011;11064;47.102;15.452;2023-07-09T20:39:20;7.63;;;6.70;;
21804;SDS011;11064;47.102;15.452;2023-07-09T20:41:48;7.63;;;6.80;;
21804;SDS011;11064;47.102;15.452;2023-07-09T20:44:20;9.37;;;6.50;;
21804;SDS011;11064;47.102;15.452;2023-07-09T20:46:49;10.75;;;7.32;;
21804;SDS011;11064;47.102;15.452;2023-07-09T20:49:31;9.05;;;6.63;;
21804;SDS011;11064;47.102;15.452;2023-07-09T20:52:02;7.85;;;6.68;;